createdAt,value
2023-02-13T13:25:03.953Z,978.36
2023-02-13T13:26:04.186Z,978.36
2023-02-13T13:27:03.535Z,978.42
2023-02-13T13:28:03.543Z,978.34
2023-02-13T13:29:03.624Z,978.29
2023-02-13T13:30:03.590Z,978.32
2023-02-13T13:31:03.844Z,978.27
2023-02-13T13:32:03.862Z,978.30
2023-02-13T13:33:03.767Z,978.20
2023-02-13T13:34:03.754Z,978.11
2023-02-13T13:35:03.744Z,978.09
2023-02-13T13:36:03.530Z,977.98
2023-02-13T13:37:03.722Z,977.88
2023-02-13T13:38:03.708Z,977.88
2023-02-13T13:39:03.718Z,977.86
2023-02-13T13:40:03.710Z,977.81
2023-02-13T13:41:03.666Z,977.87
2023-02-13T13:42:03.598Z,977.88
2023-02-13T13:43:03.826Z,977.83
2023-02-13T13:44:03.595Z,977.79
2023-02-13T13:45:03.718Z,977.75
2023-02-13T13:46:03.687Z,977.73
2023-02-13T13:47:03.718Z,977.69
2023-02-13T13:48:03.612Z,977.67
2023-02-13T13:49:03.862Z,977.69
2023-02-13T13:50:03.838Z,977.59
2023-02-13T13:51:03.677Z,977.66
2023-02-13T13:52:04.223Z,977.64
2023-02-13T13:53:03.668Z,977.69
2023-02-13T13:54:03.636Z,977.66
2023-02-13T13:55:03.794Z,977.57
2023-02-13T13:56:03.733Z,977.52
2023-02-13T13:57:03.739Z,977.54
2023-02-13T13:58:03.685Z,977.63
2023-02-13T13:59:03.638Z,977.60
2023-02-13T14:00:03.710Z,977.57
2023-02-13T14:01:03.823Z,977.57
2023-02-13T14:02:03.947Z,977.61
2023-02-13T14:03:03.813Z,977.60
2023-02-13T14:04:03.901Z,977.58
2023-02-13T14:05:03.805Z,977.57
2023-02-13T14:06:03.805Z,977.62
2023-02-13T14:07:03.785Z,977.50
2023-02-13T14:08:03.753Z,977.48
2023-02-13T14:09:03.849Z,977.49
2023-02-13T14:10:03.670Z,977.54
2023-02-13T14:11:03.804Z,977.53
2023-02-13T14:12:03.826Z,977.48
2023-02-13T14:13:03.680Z,977.47
2023-02-13T14:14:03.673Z,977.50
2023-02-13T14:15:03.745Z,977.50
2023-02-13T14:16:03.798Z,977.36
2023-02-13T14:17:03.878Z,977.41
